Time;durP1;ratioP1;P1;durP2;ratioP2;P2;SDS_P1;SDS_P2;PMS_P1;PMS_P2;Temp;Humidity;BMP_temperature;BMP_pressure;BME280_temperature;BME280_humidity;BME280_pressure;Samples;Min_cycle;Max_cycle;Signal;HPM_P1;HPM_P2
2023/04/09 00:00:04;;;;;;;13.90;10.63;;;;;;;;;;5011231;28;20033;-63
2023/04/09 00:02:30;;;;;;;14.93;10.23;;;;;;;;;;5010921;28;20037;-63
2023/04/09 00:04:56;;;;;;;16.92;11.10;;;;;;;;;;5011129;28;20022;-63
2023/04/09 00:07:22;;;;;;;14.38;9.88;;;;;;;;;;5011443;28;20474;-63
2023/04/09 00:09:48;;;;;;;15.48;10.13;;;;;;;;;;5013732;28;20033;-63
2023/04/09 00:12:14;;;;;;;14.80;10.13;;;;;;;;;;5014980;28;20348;-63
2023/04/09 00:14:40;;;;;;;16.73;10.52;;;;;;;;;;5014560;28;20021;-63
2023/04/09 00:17:06;;;;;;;14.60;10.10;;;;;;;;;;5014868;28;20029;-63
2023/04/09 00:19:32;;;;;;;13.10;9.77;;;;;;;;;;5014581;28;20084;-63
2023/04/09 00:21:58;;;;;;;14.90;10.52;;;;;;;;;;5014829;28;20026;-62
2023/04/09 00:24:24;;;;;;;14.90;9.98;;;;;;;;;;5014489;28;20034;-61
2023/04/09 00:26:52;;;;;;;13.68;10.45;;;;;;;;;;5014633;28;20022;-63
2023/04/09 00:29:18;;;;;;;14.65;9.52;;;;;;;;;;5014478;28;20553;-63
2023/04/09 00:31:44;;;;;;;13.52;9.48;;;;;;;;;;5014377;28;20110;-63
2023/04/09 00:34:10;;;;;;;14.15;10.07;;;;;;;;;;5014627;28;20036;-63
2023/04/09 00:36:36;;;;;;;16.38;9.57;;;;;;;;;;5014528;28;20385;-63
2023/04/09 00:39:02;;;;;;;14.05;10.07;;;;;;;;;;5014538;28;20029;-63
2023/04/09 00:41:28;;;;;;;13.05;9.10;;;;;;;;;;5013831;28;20080;-62
2023/04/09 00:43:56;;;;;;;13.27;9.75;;;;;;;;;;5014418;28;20065;-62
2023/04/09 00:46:22;;;;;;;13.15;9.85;;;;;;;;;;5014810;28;20038;-63
2023/04/09 00:48:48;;;;;;;10.93;8.57;;;;;;;;;;5013888;28;20044;-63
2023/04/09 00:51:14;;;;;;;11.93;9.57;;;;;;;;;;5014212;28;20440;-64
2023/04/09 00:53:40;;;;;;;13.70;9.00;;;;;;;;;;5014005;28;20030;-63
2023/04/09 00:56:06;;;;;;;13.15;9.60;;;;;;;;;;5014180;28;20064;-63
2023/04/09 00:58:32;;;;;;;12.93;9.82;;;;;;;;;;5013803;28;20496;-63
2023/04/09 01:00:58;;;;;;;11.23;9.80;;;;;;;;;;5014252;28;20033;-63
2023/04/09 01:03:24;;;;;;;11.98;9.02;;;;;;;;;;5013351;28;20034;-61
2023/04/09 01:06:04;;;;;;;11.68;9.35;;;;;;;;;;5014463;28;20033;-63
2023/04/09 01:08:33;;;;;;;13.07;9.30;;;;;;;;;;5013788;28;20547;-63
2023/04/09 01:11:09;;;;;;;15.23;9.68;;;;;;;;;;5013743;28;20022;-63
2023/04/09 01:13:42;;;;;;;13.32;9.07;;;;;;;;;;5013740;28;20109;-63
2023/04/09 01:16:09;;;;;;;13.73;9.32;;;;;;;;;;5013737;28;20112;-63
2023/04/09 01:18:40;;;;;;;13.45;9.98;;;;;;;;;;5013199;28;20038;-63
2023/04/09 01:21:10;;;;;;;10.07;8.93;;;;;;;;;;5012813;28;20030;-62
2023/04/09 01:23:36;;;;;;;11.15;8.98;;;;;;;;;;5013322;28;20029;-62
2023/04/09 01:26:06;;;;;;;10.93;9.27;;;;;;;;;;5013630;28;20034;-63
2023/04/09 01:28:35;;;;;;;10.68;9.07;;;;;;;;;;5013460;28;20359;-63
2023/04/09 01:31:12;;;;;;;11.15;9.18;;;;;;;;;;5013577;28;20022;-62
2023/04/09 01:33:38;;;;;;;11.85;9.15;;;;;;;;;;5012596;28;20506;-63
2023/04/09 01:36:05;;;;;;;11.00;8.80;;;;;;;;;;5012639;28;20105;-63
2023/04/09 01:38:32;;;;;;;9.85;8.38;;;;;;;;;;5013032;28;20486;-63
2023/04/09 01:40:59;;;;;;;10.98;9.48;;;;;;;;;;5013305;28;20486;-63
2023/04/09 01:43:25;;;;;;;11.75;8.70;;;;;;;;;;5012886;28;20046;-62
2023/04/09 01:45:52;;;;;;;13.90;9.77;;;;;;;;;;5013496;28;20025;-63
2023/04/09 01:48:18;;;;;;;9.70;8.60;;;;;;;;;;5013100;28;20112;-63
2023/04/09 01:50:44;;;;;;;10.55;8.73;;;;;;;;;;5012346;28;20812;-63
2023/04/09 01:53:10;;;;;;;10.15;8.40;;;;;;;;;;5012980;28;20378;-63
2023/04/09 01:55:36;;;;;;;11.82;9.55;;;;;;;;;;5012866;28;20392;-63
2023/04/09 01:58:02;;;;;;;11.73;8.25;;;;;;;;;;5012963;28;20042;-63
2023/04/09 02:00:32;;;;;;;10.52;8.52;;;;;;;;;;5012665;28;20030;-63
2023/04/09 02:03:16;;;;;;;12.27;8.40;;;;;;;;;;5012587;28;20030;-62
2023/04/09 02:05:45;;;;;;;11.20;8.48;;;;;;;;;;5012698;28;20062;-63
2023/04/09 02:08:12;;;;;;;11.23;8.82;;;;;;;;;;5012873;28;20061;-63
2023/04/09 02:10:38;;;;;;;10.93;9.05;;;;;;;;;;5012547;28;20034;-63
2023/04/09 02:13:05;;;;;;;11.80;8.70;;;;;;;;;;5012564;28;20616;-62
2023/04/09 02:15:31;;;;;;;9.55;8.35;;;;;;;;;;5012424;28;20068;-63
2023/04/09 02:17:57;;;;;;;10.43;8.40;;;;;;;;;;5012275;28;20037;-62
2023/04/09 02:20:23;;;;;;;12.05;8.85;;;;;;;;;;5012972;28;20026;-63
2023/04/09 02:22:49;;;;;;;9.93;8.93;;;;;;;;;;5012817;28;20052;-64
2023/04/09 02:25:15;;;;;;;10.40;8.25;;;;;;;;;;5012596;28;20022;-63
2023/04/09 02:27:41;;;;;;;10.13;8.85;;;;;;;;;;5012357;28;20088;-63
2023/04/09 02:30:07;;;;;;;10.38;8.85;;;;;;;;;;5012399;28;20382;-63
2023/04/09 02:32:33;;;;;;;10.60;8.73;;;;;;;;;;5011810;28;20100;-63
2023/04/09 02:34:59;;;;;;;11.55;9.18;;;;;;;;;;5012331;28;20061;-62
2023/04/09 02:37:25;;;;;;;11.32;9.07;;;;;;;;;;5012061;28;20042;-62
2023/04/09 02:39:52;;;;;;;9.75;8.65;;;;;;;;;;5012553;28;20036;-63
2023/04/09 02:42:18;;;;;;;11.80;9.27;;;;;;;;;;5012178;28;20150;-63
2023/04/09 02:44:44;;;;;;;11.57;8.95;;;;;;;;;;5011906;28;20029;-63
2023/04/09 02:47:09;;;;;;;9.57;7.85;;;;;;;;;;5011850;28;20080;-63
2023/04/09 02:49:35;;;;;;;10.77;8.48;;;;;;;;;;5011833;28;20055;-63
2023/04/09 02:52:01;;;;;;;11.43;8.93;;;;;;;;;;5012073;28;20022;-63
2023/04/09 02:54:27;;;;;;;9.05;7.55;;;;;;;;;;5011807;28;20593;-63
2023/04/09 02:56:53;;;;;;;9.65;8.45;;;;;;;;;;5012185;28;20041;-63
2023/04/09 02:59:19;;;;;;;9.90;8.00;;;;;;;;;;5012209;28;20022;-63
2023/04/09 03:01:45;;;;;;;9.23;8.00;;;;;;;;;;5011370;28;20026;-63
2023/04/09 03:04:11;;;;;;;8.95;7.22;;;;;;;;;;5011921;28;20024;-63
2023/04/09 03:06:37;;;;;;;8.70;7.80;;;;;;;;;;5011520;28;20109;-63
2023/04/09 03:09:03;;;;;;;10.30;7.55;;;;;;;;;;5011835;28;20069;-63
2023/04/09 03:11:29;;;;;;;8.23;7.38;;;;;;;;;;5011528;28;20030;-62
2023/04/09 03:13:55;;;;;;;10.23;7.53;;;;;;;;;;5011630;28;20030;-63
2023/04/09 03:16:23;;;;;;;7.93;6.95;;;;;;;;;;5011603;28;20105;-63
2023/04/09 03:18:49;;;;;;;8.10;6.63;;;;;;;;;;5011954;28;20026;-63
2023/04/09 03:21:15;;;;;;;8.23;7.43;;;;;;;;;;5011577;28;20449;-63
2023/04/09 03:23:41;;;;;;;10.20;7.47;;;;;;;;;;5011391;28;20040;-63
2023/04/09 03:26:07;;;;;;;7.07;6.38;;;;;;;;;;5011554;28;20084;-64
2023/04/09 03:28:33;;;;;;;8.20;7.13;;;;;;;;;;5011278;28;20022;-63
2023/04/09 03:30:59;;;;;;;8.65;7.05;;;;;;;;;;5011181;28;20087;-63
2023/04/09 03:33:25;;;;;;;8.30;6.85;;;;;;;;;;5011247;28;20029;-63
2023/04/09 03:35:51;;;;;;;8.77;7.40;;;;;;;;;;5011733;28;20029;-63
2023/04/09 03:38:18;;;;;;;7.40;6.63;;;;;;;;;;5011293;28;20034;-63
2023/04/09 03:40:44;;;;;;;7.85;6.60;;;;;;;;;;5011068;28;20040;-63
2023/04/09 03:43:10;;;;;;;6.68;5.97;;;;;;;;;;5013300;28;20042;-63
2023/04/09 03:45:36;;;;;;;7.25;6.05;;;;;;;;;;5017296;28;20049;-63
2023/04/09 03:48:02;;;;;;;7.22;5.65;;;;;;;;;;5017631;28;20021;-62
2023/04/09 03:50:28;;;;;;;7.10;6.28;;;;;;;;;;5017602;28;20038;-62
2023/04/09 03:52:55;;;;;;;8.35;6.65;;;;;;;;;;5017821;28;20049;-62
2023/04/09 03:55:21;;;;;;;8.32;6.57;;;;;;;;;;5018105;28;20548;-65
2023/04/09 03:57:47;;;;;;;6.60;5.70;;;;;;;;;;5017328;28;20124;-63
2023/04/09 04:00:13;;;;;;;6.72;6.03;;;;;;;;;;5017516;28;20093;-63
2023/04/09 04:02:39;;;;;;;6.65;5.75;;;;;;;;;;4997814;28;20081;-63
2023/04/09 04:05:05;;;;;;;6.72;5.88;;;;;;;;;;4997923;28;20092;-62
2023/04/09 04:07:32;;;;;;;6.82;5.78;;;;;;;;;;4997934;28;20026;-62
2023/04/09 04:09:58;;;;;;;7.10;6.32;;;;;;;;;;4998100;28;20037;-62
2023/04/09 04:12:24;;;;;;;6.72;5.85;;;;;;;;;;4998358;28;20398;-63
2023/04/09 04:14:50;;;;;;;6.78;6.07;;;;;;;;;;4998303;28;20048;-63
2023/04/09 04:17:16;;;;;;;7.13;6.32;;;;;;;;;;5016576;28;20478;-63
2023/04/09 04:19:42;;;;;;;6.00;5.40;;;;;;;;;;5017368;28;20030;-62
2023/04/09 04:22:08;;;;;;;6.15;5.55;;;;;;;;;;5017579;28;20115;-63
2023/04/09 04:24:34;;;;;;;6.28;5.20;;;;;;;;;;5017427;28;20028;-62
2023/04/09 04:27:00;;;;;;;6.13;5.35;;;;;;;;;;5017471;28;20052;-63
2023/04/09 04:29:27;;;;;;;6.47;5.10;;;;;;;;;;5017435;28;20057;-62
2023/04/09 04:31:52;;;;;;;6.50;4.82;;;;;;;;;;5017370;28;20025;-63
2023/04/09 04:34:19;;;;;;;5.72;5.13;;;;;;;;;;5017478;28;20034;-63
2023/04/09 04:36:45;;;;;;;6.13;4.95;;;;;;;;;;5017144;28;20084;-63
2023/04/09 04:39:10;;;;;;;5.22;4.30;;;;;;;;;;5017428;28;20049;-63
2023/04/09 04:41:36;;;;;;;5.85;4.75;;;;;;;;;;5017011;28;20474;-63
2023/04/09 04:44:02;;;;;;;5.90;4.88;;;;;;;;;;5017409;28;20025;-63
2023/04/09 04:46:28;;;;;;;6.05;4.72;;;;;;;;;;5016650;28;20030;-63
2023/04/09 04:48:54;;;;;;;5.65;4.93;;;;;;;;;;5017344;28;20041;-62
2023/04/09 04:51:20;;;;;;;4.75;4.25;;;;;;;;;;5017629;28;20072;-63
2023/04/09 04:53:46;;;;;;;4.97;4.47;;;;;;;;;;5017094;28;20026;-63
2023/04/09 04:56:13;;;;;;;5.78;5.05;;;;;;;;;;5012929;28;20033;-63
2023/04/09 04:58:39;;;;;;;5.10;4.40;;;;;;;;;;5013900;28;20593;-63
2023/04/09 05:01:05;;;;;;;4.88;4.07;;;;;;;;;;5013451;28;20080;-63
2023/04/09 05:03:31;;;;;;;5.32;4.55;;;;;;;;;;5013928;28;20030;-63
2023/04/09 05:05:57;;;;;;;5.97;5.30;;;;;;;;;;5014014;28;20470;-63
2023/04/09 05:08:23;;;;;;;4.38;3.85;;;;;;;;;;5014247;28;20029;-63
2023/04/09 05:10:50;;;;;;;5.53;4.13;;;;;;;;;;5014160;28;20034;-63
2023/04/09 05:13:16;;;;;;;5.30;4.50;;;;;;;;;;5013759;28;20390;-63
2023/04/09 05:15:42;;;;;;;4.32;3.92;;;;;;;;;;5013238;28;20101;-63
2023/04/09 05:18:08;;;;;;;4.50;4.10;;;;;;;;;;5013694;28;20042;-63
2023/04/09 05:20:34;;;;;;;5.32;4.43;;;;;;;;;;5013359;28;20076;-63
2023/04/09 05:23:00;;;;;;;4.22;3.67;;;;;;;;;;5013501;28;20182;-62
2023/04/09 05:25:26;;;;;;;4.47;4.00;;;;;;;;;;5013381;28;20052;-62
2023/04/09 05:27:52;;;;;;;4.72;4.03;;;;;;;;;;5013962;28;20054;-63
2023/04/09 05:30:18;;;;;;;7.15;4.00;;;;;;;;;;5012864;28;20037;-63
2023/04/09 05:32:44;;;;;;;6.13;3.95;;;;;;;;;;5013292;28;20945;-63
2023/04/09 05:35:10;;;;;;;4.63;4.13;;;;;;;;;;5013433;28;20029;-63
2023/04/09 05:37:36;;;;;;;4.07;3.67;;;;;;;;;;5011836;28;20046;-62
2023/04/09 05:40:02;;;;;;;5.25;4.32;;;;;;;;;;5013199;28;20022;-63
2023/04/09 05:42:28;;;;;;;6.65;3.88;;;;;;;;;;5012981;28;20413;-62
2023/04/09 05:44:54;;;;;;;4.25;3.65;;;;;;;;;;5012786;28;20030;-62
2023/04/09 05:47:20;;;;;;;4.45;3.80;;;;;;;;;;5013563;28;20025;-63
2023/04/09 05:49:46;;;;;;;4.10;3.60;;;;;;;;;;5012465;28;20033;-63
2023/04/09 05:52:12;;;;;;;4.43;3.70;;;;;;;;;;5012947;28;20022;-63
2023/04/09 05:54:38;;;;;;;4.32;3.72;;;;;;;;;;5012796;28;20517;-63
2023/04/09 05:57:04;;;;;;;5.85;4.22;;;;;;;;;;5012996;28;20030;-62
2023/04/09 05:59:30;;;;;;;4.32;3.67;;;;;;;;;;5012865;28;20029;-63
2023/04/09 06:01:56;;;;;;;4.30;3.67;;;;;;;;;;5013012;28;20021;-62
2023/04/09 06:04:22;;;;;;;3.85;3.47;;;;;;;;;;5012689;28;20037;-63
2023/04/09 06:06:48;;;;;;;3.78;3.28;;;;;;;;;;5012287;28;20456;-63
2023/04/09 06:09:14;;;;;;;4.57;3.25;;;;;;;;;;5012867;28;20393;-63
2023/04/09 06:11:40;;;;;;;3.78;3.35;;;;;;;;;;4995074;28;20026;-63
2023/04/09 06:14:06;;;;;;;4.05;3.22;;;;;;;;;;5012723;28;20105;-63
2023/04/09 06:16:33;;;;;;;4.45;3.95;;;;;;;;;;5011031;28;20033;-61
2023/04/09 06:18:59;;;;;;;3.40;3.08;;;;;;;;;;5012543;28;20053;-62
2023/04/09 06:21:25;;;;;;;5.03;3.58;;;;;;;;;;5012315;28;20025;-62
2023/04/09 06:23:52;;;;;;;11.23;3.53;;;;;;;;;;5012179;28;20065;-62
2023/04/09 06:26:18;;;;;;;5.22;3.17;;;;;;;;;;5012403;28;20072;-61
2023/04/09 06:28:44;;;;;;;4.75;3.78;;;;;;;;;;5012227;28;20882;-62
2023/04/09 06:31:10;;;;;;;6.93;3.17;;;;;;;;;;5012439;28;20125;-62
2023/04/09 06:33:36;;;;;;;10.60;3.25;;;;;;;;;;5011892;28;20545;-62
2023/04/09 06:36:02;;;;;;;3.67;2.95;;;;;;;;;;5011967;28;20026;-62
2023/04/09 06:38:28;;;;;;;7.47;2.67;;;;;;;;;;5011470;28;20040;-62
2023/04/09 06:40:56;;;;;;;8.20;3.30;;;;;;;;;;5012658;28;20022;-62
2023/04/09 06:43:22;;;;;;;3.72;3.05;;;;;;;;;;5012274;28;20041;-61
2023/04/09 06:45:48;;;;;;;2.97;2.63;;;;;;;;;;5011825;28;20041;-62
2023/04/09 06:48:14;;;;;;;3.80;2.90;;;;;;;;;;5011630;28;20120;-61
2023/04/09 06:50:40;;;;;;;4.25;3.17;;;;;;;;;;5011739;28;20026;-62
2023/04/09 06:53:06;;;;;;;3.83;3.35;;;;;;;;;;5012038;28;20466;-62
2023/04/09 06:55:32;;;;;;;4.10;3.00;;;;;;;;;;5011772;28;20022;-62
2023/04/09 06:57:58;;;;;;;3.90;3.20;;;;;;;;;;5011782;28;20046;-62
2023/04/09 07:00:25;;;;;;;6.53;3.65;;;;;;;;;;5011470;28;20029;-63
2023/04/09 07:02:52;;;;;;;4.22;3.63;;;;;;;;;;5012099;28;20466;-62
2023/04/09 07:05:18;;;;;;;4.47;3.47;;;;;;;;;;5011704;28;20030;-62
2023/04/09 07:07:44;;;;;;;4.93;3.83;;;;;;;;;;5011625;28;20357;-62
2023/04/09 07:10:10;;;;;;;5.47;4.05;;;;;;;;;;4994054;28;20026;-62
2023/04/09 07:12:36;;;;;;;4.75;3.88;;;;;;;;;;5011532;28;20100;-62
2023/04/09 07:15:03;;;;;;;4.63;4.15;;;;;;;;;;5011010;28;20022;-62
2023/04/09 07:17:30;;;;;;;6.38;4.82;;;;;;;;;;5010747;28;20410;-62
2023/04/09 07:19:56;;;;;;;6.05;4.60;;;;;;;;;;5011334;28;20101;-62
2023/04/09 07:22:23;;;;;;;6.57;4.93;;;;;;;;;;5011949;28;20538;-62
2023/04/09 07:24:52;;;;;;;5.70;4.85;;;;;;;;;;5013732;28;20049;-62
2023/04/09 07:27:28;;;;;;;8.15;4.30;;;;;;;;;;4993932;28;20034;-62
2023/04/09 07:29:55;;;;;;;6.60;4.25;;;;;;;;;;5011258;28;20034;-62
2023/04/09 07:32:21;;;;;;;5.40;4.63;;;;;;;;;;5011818;28;20064;-62
2023/04/09 07:34:47;;;;;;;6.10;4.85;;;;;;;;;;5011143;28;20057;-62
2023/04/09 07:37:13;;;;;;;6.88;5.47;;;;;;;;;;5011328;28;20486;-61
2023/04/09 07:39:39;;;;;;;5.45;4.15;;;;;;;;;;5011087;28;20033;-62
2023/04/09 07:42:05;;;;;;;5.22;4.35;;;;;;;;;;5010660;28;20033;-62
2023/04/09 07:44:35;;;;;;;7.50;4.80;;;;;;;;;;5010802;28;20432;-62
2023/04/09 07:47:01;;;;;;;6.45;4.80;;;;;;;;;;5011166;28;20026;-62
2023/04/09 07:49:27;;;;;;;6.30;4.97;;;;;;;;;;5011024;28;20457;-62
2023/04/09 07:51:53;;;;;;;7.20;4.70;;;;;;;;;;5011371;28;20030;-61
2023/04/09 07:54:20;;;;;;;6.70;4.63;;;;;;;;;;5011518;28;20073;-62
2023/04/09 07:56:46;;;;;;;6.38;4.80;;;;;;;;;;5010249;28;20066;-62
2023/04/09 07:59:14;;;;;;;6.05;4.32;;;;;;;;;;5011161;28;20521;-62
2023/04/09 08:01:40;;;;;;;7.35;4.82;;;;;;;;;;4992833;28;20057;-62
2023/04/09 08:04:06;;;;;;;5.82;4.45;;;;;;;;;;5009859;28;20498;-62
2023/04/09 08:06:32;;;;;;;6.03;5.18;;;;;;;;;;5010499;28;20022;-62
2023/04/09 08:08:58;;;;;;;8.98;4.57;;;;;;;;;;5011117;28;20034;-62
2023/04/09 08:11:24;;;;;;;6.40;4.70;;;;;;;;;;5011340;28;20029;-63
2023/04/09 08:13:51;;;;;;;6.57;4.95;;;;;;;;;;5011200;28;20030;-62
2023/04/09 08:16:17;;;;;;;7.50;4.57;;;;;;;;;;5010886;28;20508;-62
2023/04/09 08:18:44;;;;;;;7.38;4.97;;;;;;;;;;5010762;28;20379;-63
2023/04/09 08:21:10;;;;;;;6.18;4.47;;;;;;;;;;5010567;28;20494;-62
2023/04/09 08:23:36;;;;;;;6.65;4.28;;;;;;;;;;5010779;28;20394;-63
2023/04/09 08:26:02;;;;;;;5.63;4.50;;;;;;;;;;5009973;28;20056;-62
2023/04/09 08:28:28;;;;;;;6.95;4.97;;;;;;;;;;5010053;28;20049;-62
2023/04/09 08:30:54;;;;;;;5.82;4.55;;;;;;;;;;5012617;28;20140;-62
2023/04/09 08:33:20;;;;;;;7.32;4.95;;;;;;;;;;5013042;28;20157;-62
2023/04/09 08:35:46;;;;;;;7.40;5.15;;;;;;;;;;5012448;28;20102;-63
2023/04/09 08:38:13;;;;;;;7.47;4.32;;;;;;;;;;4994970;28;20034;-63
2023/04/09 08:40:40;;;;;;;6.65;4.95;;;;;;;;;;5012628;28;20513;-62
2023/04/09 08:43:06;;;;;;;8.40;4.60;;;;;;;;;;5012795;28;20397;-62
2023/04/09 08:45:32;;;;;;;5.45;4.75;;;;;;;;;;5014131;28;20029;-63
2023/04/09 08:48:02;;;;;;;5.60;4.72;;;;;;;;;;5013232;28;20022;-63
2023/04/09 08:50:32;;;;;;;6.80;5.03;;;;;;;;;;5013236;28;20088;-63
2023/04/09 08:53:01;;;;;;;6.88;4.93;;;;;;;;;;5014050;28;20401;-62
2023/04/09 08:55:27;;;;;;;8.32;5.15;;;;;;;;;;4996333;28;20120;-62
2023/04/09 08:57:53;;;;;;;6.40;4.85;;;;;;;;;;5014347;28;20466;-62
2023/04/09 09:00:19;;;;;;;6.50;4.63;;;;;;;;;;5014410;28;20090;-63
2023/04/09 09:03:03;;;;;;;6.57;5.10;;;;;;;;;;5014001;28;20037;-63
2023/04/09 09:05:34;;;;;;;6.82;4.78;;;;;;;;;;5013739;28;20091;-62
2023/04/09 09:08:01;;;;;;;6.32;4.90;;;;;;;;;;5014085;28;20026;-63
2023/04/09 09:10:40;;;;;;;7.50;4.72;;;;;;;;;;5013431;28;20038;-63
2023/04/09 09:13:16;;;;;;;7.22;5.03;;;;;;;;;;5013972;28;20026;-63
2023/04/09 09:15:42;;;;;;;6.97;5.10;;;;;;;;;;5013495;28;20057;-63
2023/04/09 09:18:08;;;;;;;5.22;4.57;;;;;;;;;;5013680;28;20038;-62
2023/04/09 09:20:34;;;;;;;6.38;4.70;;;;;;;;;;5013510;28;20026;-63
2023/04/09 09:23:01;;;;;;;7.07;5.50;;;;;;;;;;5013710;28;20034;-63
2023/04/09 09:25:27;;;;;;;6.85;4.70;;;;;;;;;;5013366;28;20026;-62
2023/04/09 09:27:53;;;;;;;6.15;4.90;;;;;;;;;;5013769;28;20079;-62
2023/04/09 09:30:23;;;;;;;7.47;5.13;;;;;;;;;;5013886;28;20018;-63
2023/04/09 09:32:53;;;;;;;6.15;4.82;;;;;;;;;;4996252;28;20034;-63
2023/04/09 09:35:19;;;;;;;6.15;4.47;;;;;;;;;;5013654;28;20493;-63
2023/04/09 09:37:46;;;;;;;5.90;4.35;;;;;;;;;;4995583;28;20034;-62
2023/04/09 09:40:25;;;;;;;6.65;4.88;;;;;;;;;;5013370;28;20021;-63
2023/04/09 09:42:56;;;;;;;5.65;4.75;;;;;;;;;;5013291;28;20505;-63
2023/04/09 09:45:22;;;;;;;5.88;5.10;;;;;;;;;;4996207;28;20022;-63
2023/04/09 09:47:50;;;;;;;5.97;5.25;;;;;;;;;;5013010;28;20101;-63
2023/04/09 09:50:16;;;;;;;7.03;4.82;;;;;;;;;;5013312;28;20029;-63
2023/04/09 09:52:45;;;;;;;6.07;4.57;;;;;;;;;;5012887;28;20033;-63
2023/04/09 09:55:14;;;;;;;5.78;4.30;;;;;;;;;;5013050;28;20018;-63
2023/04/09 09:57:42;;;;;;;7.70;5.45;;;;;;;;;;5012722;28;20116;-63
2023/04/09 10:00:11;;;;;;;6.95;5.47;;;;;;;;;;5012961;28;20026;-63
2023/04/09 10:02:43;;;;;;;6.85;4.90;;;;;;;;;;5012787;28;20029;-63
2023/04/09 10:05:10;;;;;;;6.47;4.93;;;;;;;;;;5012664;28;20077;-63
2023/04/09 10:07:37;;;;;;;5.68;4.95;;;;;;;;;;5012962;28;20425;-63
2023/04/09 10:10:04;;;;;;;7.65;5.18;;;;;;;;;;5012821;28;20084;-63
2023/04/09 10:12:32;;;;;;;6.07;5.03;;;;;;;;;;5012253;28;20033;-62
2023/04/09 10:15:03;;;;;;;5.85;5.10;;;;;;;;;;5011795;28;20037;-63
2023/04/09 10:17:30;;;;;;;7.40;5.22;;;;;;;;;;4992508;28;20026;-63
2023/04/09 10:20:01;;;;;;;5.85;5.15;;;;;;;;;;4993116;28;20042;-63
2023/04/09 10:22:29;;;;;;;6.40;4.85;;;;;;;;;;4992868;28;20069;-63
2023/04/09 10:24:56;;;;;;;7.20;4.93;;;;;;;;;;5009140;28;20520;-63
2023/04/09 10:27:22;;;;;;;7.82;5.47;;;;;;;;;;5032387;28;20033;-63
2023/04/09 10:29:50;;;;;;;7.13;4.80;;;;;;;;;;5031134;28;20033;-63
2023/04/09 10:32:27;;;;;;;6.65;5.28;;;;;;;;;;5012245;28;20085;-63
2023/04/09 10:34:56;;;;;;;6.95;5.20;;;;;;;;;;5012595;28;20034;-63
2023/04/09 10:37:24;;;;;;;5.43;4.75;;;;;;;;;;5012468;28;20060;-63
2023/04/09 10:39:51;;;;;;;6.75;5.47;;;;;;;;;;5012327;28;20470;-63
2023/04/09 10:42:23;;;;;;;6.55;5.55;;;;;;;;;;5019139;28;20076;-62
2023/04/09 10:45:06;;;;;;;7.30;5.05;;;;;;;;;;5032302;28;20029;-63
2023/04/09 10:47:33;;;;;;;6.57;5.45;;;;;;;;;;5031684;28;20079;-63
2023/04/09 10:50:14;;;;;;;6.75;5.05;;;;;;;;;;5031810;28;20447;-63
2023/04/09 10:52:41;;;;;;;6.28;5.68;;;;;;;;;;5002551;28;20456;-63
2023/04/09 10:55:07;;;;;;;9.60;5.00;;;;;;;;;;5018646;28;20021;-63
2023/04/09 10:57:33;;;;;;;6.55;5.32;;;;;;;;;;5024242;28;20517;-64
2023/04/09 10:59:59;;;;;;;7.35;5.30;;;;;;;;;;5020883;28;20025;-63
2023/04/09 11:02:25;;;;;;;6.72;5.80;;;;;;;;;;5030311;28;20030;-64
2023/04/09 11:05:00;;;;;;;6.60;5.72;;;;;;;;;;5011794;28;20025;-64
2023/04/09 11:07:27;;;;;;;6.95;5.95;;;;;;;;;;5010476;28;20028;-63
2023/04/09 11:09:53;;;;;;;7.53;5.30;;;;;;;;;;5020296;28;20021;-64
2023/04/09 11:12:19;;;;;;;6.82;5.10;;;;;;;;;;5012332;28;20037;-64
2023/04/09 11:14:45;;;;;;;8.38;5.63;;;;;;;;;;4999542;28;20038;-64
2023/04/09 11:17:12;;;;;;;9.65;5.63;;;;;;;;;;5014260;28;20017;-63
2023/04/09 11:19:38;;;;;;;8.05;5.90;;;;;;;;;;5023180;28;20032;-65
2023/04/09 11:22:05;;;;;;;7.70;6.05;;;;;;;;;;5017225;28;20087;-64
2023/04/09 11:24:45;;;;;;;6.38;5.47;;;;;;;;;;5017678;28;20549;-63
2023/04/09 11:27:11;;;;;;;9.25;5.53;;;;;;;;;;5015330;28;20057;-61
2023/04/09 11:29:37;;;;;;;6.20;5.28;;;;;;;;;;5018748;28;20501;-63
2023/04/09 11:32:04;;;;;;;7.25;5.75;;;;;;;;;;5017956;28;20040;-63
2023/04/09 11:34:30;;;;;;;6.75;5.88;;;;;;;;;;5017542;28;20034;-61
2023/04/09 11:36:57;;;;;;;7.70;6.53;;;;;;;;;;5017589;28;20485;-64
2023/04/09 11:39:24;;;;;;;8.15;6.13;;;;;;;;;;5019610;28;20025;-63
2023/04/09 11:41:50;;;;;;;9.18;6.22;;;;;;;;;;5018990;28;20080;-63
2023/04/09 11:44:16;;;;;;;7.85;6.40;;;;;;;;;;5015907;28;20029;-63
2023/04/09 11:46:42;;;;;;;7.80;6.70;;;;;;;;;;5026123;28;20025;-63
2023/04/09 11:49:08;;;;;;;7.90;6.15;;;;;;;;;;5013869;28;20097;-63
2023/04/09 11:51:34;;;;;;;6.78;5.72;;;;;;;;;;5023717;28;20049;-63
2023/04/09 11:54:07;;;;;;;7.75;6.47;;;;;;;;;;5020644;28;20086;-62
2023/04/09 11:56:35;;;;;;;8.52;6.68;;;;;;;;;;5028659;28;20030;-64
2023/04/09 11:59:01;;;;;;;9.82;6.93;;;;;;;;;;5013701;28;20121;-63
2023/04/09 12:01:33;;;;;;;9.32;7.38;;;;;;;;;;5021256;28;20018;-62
2023/04/09 12:04:00;;;;;;;8.57;7.38;;;;;;;;;;5020550;28;20037;-62
2023/04/09 12:06:27;;;;;;;8.23;6.68;;;;;;;;;;5027934;28;20017;-61
2023/04/09 12:08:57;;;;;;;8.45;7.43;;;;;;;;;;5018027;28;20030;-67
2023/04/09 12:11:30;;;;;;;8.55;7.18;;;;;;;;;;5029472;28;20014;-63
2023/04/09 12:14:01;;;;;;;8.55;7.32;;;;;;;;;;5023874;28;20048;-62
2023/04/09 12:16:29;;;;;;;9.43;7.60;;;;;;;;;;5019876;28;20034;-62
2023/04/09 12:18:55;;;;;;;8.98;7.70;;;;;;;;;;5030498;28;20042;-63
2023/04/09 12:21:25;;;;;;;7.90;7.10;;;;;;;;;;5019379;28;20017;-63
2023/04/09 12:23:51;;;;;;;7.90;6.65;;;;;;;;;;5025096;28;20038;-63
2023/04/09 12:26:17;;;;;;;8.30;7.00;;;;;;;;;;5026644;28;20022;-63
2023/04/09 12:28:43;;;;;;;8.32;7.45;;;;;;;;;;5022299;28;20017;-62
2023/04/09 12:31:10;;;;;;;8.18;6.47;;;;;;;;;;5026070;28;20566;-62
2023/04/09 12:33:37;;;;;;;8.05;6.95;;;;;;;;;;5023911;28;20021;-63
2023/04/09 12:36:04;;;;;;;9.68;7.00;;;;;;;;;;5025420;28;20033;-63
2023/04/09 12:38:30;;;;;;;9.93;7.57;;;;;;;;;;5022257;28;20501;-62
2023/04/09 12:40:56;;;;;;;8.43;7.50;;;;;;;;;;5021808;28;20076;-63
2023/04/09 12:43:21;;;;;;;8.55;7.65;;;;;;;;;;5023939;28;20034;-62
2023/04/09 12:45:47;;;;;;;8.55;7.57;;;;;;;;;;5030314;28;20076;-63
2023/04/09 12:48:13;;;;;;;9.32;7.68;;;;;;;;;;5023379;28;20543;-63
2023/04/09 12:50:39;;;;;;;8.98;8.05;;;;;;;;;;5022452;28;20049;-63
2023/04/09 12:53:05;;;;;;;8.93;7.35;;;;;;;;;;5025127;28;20491;-63
2023/04/09 12:55:31;;;;;;;8.32;7.00;;;;;;;;;;5026269;28;20032;-63
2023/04/09 12:57:58;;;;;;;9.27;8.23;;;;;;;;;;5022871;28;20474;-63
2023/04/09 13:00:24;;;;;;;9.25;8.00;;;;;;;;;;5029475;28;20555;-63
2023/04/09 13:02:51;;;;;;;8.68;7.75;;;;;;;;;;5019721;28;20034;-63
2023/04/09 13:05:17;;;;;;;8.65;7.85;;;;;;;;;;5021205;28;20401;-63
2023/04/09 13:07:43;;;;;;;10.25;8.30;;;;;;;;;;5021603;28;20034;-62
2023/04/09 13:10:09;;;;;;;8.68;7.63;;;;;;;;;;5020028;28;20080;-62
2023/04/09 13:12:35;;;;;;;10.25;7.57;;;;;;;;;;5018322;28;20026;-62
2023/04/09 13:15:02;;;;;;;9.10;7.68;;;;;;;;;;5024168;28;20017;-63
2023/04/09 13:17:28;;;;;;;9.13;7.45;;;;;;;;;;5024862;28;20037;-62
2023/04/09 13:19:54;;;;;;;11.23;8.82;;;;;;;;;;5024517;28;20024;-62
2023/04/09 13:22:20;;;;;;;8.93;8.00;;;;;;;;;;5026603;28;20028;-63
2023/04/09 13:24:46;;;;;;;8.40;7.60;;;;;;;;;;5025574;28;20017;-63
2023/04/09 13:27:12;;;;;;;8.30;7.45;;;;;;;;;;5024052;28;20695;-63
2023/04/09 13:29:38;;;;;;;10.63;8.02;;;;;;;;;;5020138;28;20092;-63
2023/04/09 13:32:09;;;;;;;8.55;7.45;;;;;;;;;;5024373;28;20033;-63
2023/04/09 13:34:35;;;;;;;8.00;7.15;;;;;;;;;;5020377;28;20029;-63
2023/04/09 13:37:02;;;;;;;8.50;7.25;;;;;;;;;;5030850;28;20112;-63
2023/04/09 13:39:28;;;;;;;13.55;8.13;;;;;;;;;;5025655;28;20501;-62
2023/04/09 13:41:55;;;;;;;9.65;7.72;;;;;;;;;;5023588;28;20490;-60
2023/04/09 13:44:21;;;;;;;8.25;7.45;;;;;;;;;;5024992;28;20026;-63
2023/04/09 13:46:47;;;;;;;8.57;7.38;;;;;;;;;;5025613;28;20021;-63
2023/04/09 13:49:13;;;;;;;8.90;8.00;;;;;;;;;;5029378;28;20017;-63
2023/04/09 13:51:39;;;;;;;8.75;7.93;;;;;;;;;;5024763;28;20022;-62
2023/04/09 13:54:07;;;;;;;9.52;7.57;;;;;;;;;;5019854;28;20128;-63
2023/04/09 13:56:33;;;;;;;8.15;7.05;;;;;;;;;;5025621;28;20104;-65
2023/04/09 13:58:59;;;;;;;9.20;7.85;;;;;;;;;;5013790;28;20030;-65
2023/04/09 14:01:27;;;;;;;8.75;7.75;;;;;;;;;;5023412;28;20025;-64
2023/04/09 14:03:53;;;;;;;8.65;7.72;;;;;;;;;;5023030;28;20061;-64
2023/04/09 14:06:19;;;;;;;7.90;7.10;;;;;;;;;;5025367;28;20026;-64
2023/04/09 14:08:45;;;;;;;8.30;7.30;;;;;;;;;;5015084;28;20112;-64
2023/04/09 14:11:13;;;;;;;9.88;8.07;;;;;;;;;;5018702;28;20148;-64
2023/04/09 14:13:40;;;;;;;9.02;7.55;;;;;;;;;;5016081;28;20021;-65
2023/04/09 14:16:06;;;;;;;8.82;7.93;;;;;;;;;;5023018;28;20120;-65
2023/04/09 14:18:32;;;;;;;7.78;6.97;;;;;;;;;;5016907;28;20044;-64
2023/04/09 14:20:58;;;;;;;9.20;7.82;;;;;;;;;;5029440;28;20038;-65
2023/04/09 14:23:28;;;;;;;8.55;7.45;;;;;;;;;;5021767;28;20164;-61
2023/04/09 14:25:54;;;;;;;10.45;8.32;;;;;;;;;;5011579;28;20497;-63
2023/04/09 14:28:20;;;;;;;11.35;8.00;;;;;;;;;;5024759;28;20029;-65
2023/04/09 14:30:46;;;;;;;9.60;8.60;;;;;;;;;;5015032;28;20131;-62
2023/04/09 14:33:12;;;;;;;10.05;8.95;;;;;;;;;;5018346;28;20504;-64
2023/04/09 14:35:38;;;;;;;9.05;8.13;;;;;;;;;;5019071;28;20026;-65
2023/04/09 14:38:04;;;;;;;8.18;7.38;;;;;;;;;;5015226;28;20044;-64